Clewiston, FL (33440)

6:38 PM EDT on September 27, 2016 (GMT -0400)
SFWMD | | Change Station

Elev 14 ft 26.82 °N, 80.78 °W | Updated 53 minutes ago

Overcast
Overcast
77 °F
Feels Like 78 °F
N
14
Wind Variable Wind from SSW
Gusts 0.0 mph

Today
High -- | Low -- °F
--% Chance of Precip.
Yesterday
High -- | Low -- °F
Precip. -- in
Pressure 29.95 in
Visibility -9999.0 miles
Clouds
Heat Index 78 °F
Dew Point 72 °F
Humidity 84%
Rainfall in
Snow Depth Not available.
7:14 AM 7:13 PM
Waning Crescent, 9% visible
METAR KOBE 272215Z AUTO 18006KT VCTSDZ 22/21 A2995 RMK AO2 P0003 LTG DSNT SW THRU NE
Pressure 29.95 in
Visibility -9999.0 miles
Clouds
Heat Index 78 °F
Dew Point 72 °F
Humidity 84%
Rainfall in
Snow Depth Not available.
7:14 AM 7:13 PM
Waning Crescent, 9% visible
METAR KOBE 272215Z AUTO 18006KT VCTSDZ 22/21 A2995 RMK AO2 P0003 LTG DSNT SW THRU NE

10-Day Weather Forecast

Almanac

Astronomy

Sep. 27, 2016 Rise Set
Actual Time
Civil Twilight
Nautical Twilight
Astronomical Twilight
Moon
Length of Visible Light
Length of Day
Tomorrow will be .
, % of the Moon is Illuminated

Today's Extremes

State Highs State Lows

Community

WunderPhotos

Upload Photos

1,942,173 photos uploaded!

WunderBlog® & News

Nearby

Air Quality

  Air Quality AQ Index Pollutant
Not available.

Snow Depth

Station Depth Elevation

Earthquake Activity

City Distance Mag. Time & Date
Minimum magnitude displayed is 2.5.

Coastal Water Temperatures

Place Temperature

Stations

Nearby Weather Stations

Station Location Temp. Windchill Dew Point Humidity Wind Precip. Elev Updated Type
                   

Watches & Warnings

There are currently no watches in effect.